Stockton, New Jersey
Current Conditions -  °F | °C
As of 12:54 AM on Saturday 20 Dec 2014 (Local Time) from KDYL Reporting Station
Overcast Overcast  
Wind Chill: -4°   Ceiling: 2600
Heat Index: -1°   Visibility: 10mi
Dew Point: -5°   Wind: 7mph
Humidity: 72%   Direction: 10°N
Pressure: 30.17"   Gusts: NA
Location:  40.41°N, 74.98°W
Report Text: KDYL 200554Z AUTO 01006KT 10SM OVC026 M01/M05 A3017 RMK AO2 SLP225 T10061050 11006 21017 50001
Loading
Personal Weather Stations






























Interactive Weather Map New forecast layout! Learn more

10-Day Weather Forecast

Advertisements
Track Severe Weather on mobile